Startpagina
METAR-TAF:

METAR-TAF

Vliegvelden :

Luchthaven Belgrado Nikola Tesla

Belgrado, Servië

breedte: 44-49N, lengte: 020-17E, hoogte: 96 m

Actueel weer

Dit bericht is 6 minuten geleden gemaakt, om 23:30 UTC
Wind 3 kt uit het zuidoosten, variërend tussen het oosten en het zuidzuidoosten
Temperatuur 18°C
Vochtigheid 88%
Druk 1020 hPa
Zicht 10 km of meer
geen wolken onder 1500 m en geen cumulonimbus

METAR: LYBE 262330Z 13003KT 100V160 CAVOK 18/16 Q1020 NOSIG

Tijdstip: 01:36 (23:36 UTC)

Verwachting

Dit bericht is 36 minuten geleden gemaakt, om 23:00 UTC
Verwachting geldig van 27 om 00 UTC tot 27 om 24 UTC
Wind 8 kt uit het oostnoordoosten
Zicht 10 km of meer
geen wolken onder 1500 m en geen cumulonimbus
Kans 30% :
Tijdelijke
van 27 om 13 UTC tot 27 om 15 UTC
Zicht: 5000 m
Verspreide wolken op 3000 ft, Cumulonimbus.
Verspreide wolken op 4000 ft
onweer, regen

TAF: LYBE 262300Z 2700/2724 06008KT CAVOK TX29/2713Z TN15/2703Z PROB30 TEMPO 2713/2715 5000 TSRA SCT030CB SCT040

Waarnemingen en weersverwachtingen van meer dan 4000 vliegvelden (METAR en TAF).

De beschikbare stations zijn de gele en rode punten op de kaart.

Ga met uw muis naar het station om de naam te zien.

Klik dan om waarnemingen en weersverwachtingen te zien.

kaart wijzigen: klik op de groene knoppen met een zwart kruis om in te zoomen, op de groene knop met een streepje om uit te zoomen of op de groene pijlen voor aangrenzende kaarten.


METAR-TAF: